Airfield :
LOGIN :

Register | Disclaimer

   EN    FR    IT 

 










Legend :    VFR   Marginal VFR   IFR   Intensive IFR   Very Intensive IFR
Visi :
Ceiling :
>= 8 km
>= 3000ft
5 to 8 km
1000 to 3000 ft
1500m to 5 km
500 to 1000 ft
800 to 1500m
200 to 500 ft
< 800m
< 200 ft
Symbols :   Thunderstorms  Fog  Heavy snow  Heavy precipitations  Wind > 20 kt
SIGMETs :     Misc.  Thunderstorms  Icing  Turbulence  Mountain Waves  Volcanic Ashes






- Airport Elevation : 220 ft
- IATA code : CWL


EGFF - Cardiff Rhoose

CURRENT METAR :
  • 270950Z AUTO 26009KT 0700 R30/1300 FG VV/// 09/09 Q1012

EXPIRED METARs :
  • 270920Z AUTO 26009KT 0700 R30/1200 FG VV/// 08/08 Q1012
  • 270850Z AUTO 26009KT 0450 R12/0600 FG VV/// 08/08 Q1012
  • 270820Z AUTO 26009KT 0550 R12/0700 -DZ FG OVC003 08/08 Q1011 RERA REDZ
  • 270750Z AUTO 26009KT 0600 R12/0900 FG VV/// 08/08 Q1011
  • 270720Z AUTO 26010KT 0600 R12/0800 FG VV/// 08/08 Q1011

TAF TAF EGFF
Valid from the 27 at 06:00 until the 28 at 06:00 UTC


270456Z 2706/2806 27010KT 2000 -DZ BR BKN002
TEMPO 2706/2806 0300 RADZ FG BKN001
BECMG 2715/2718 14006KT
PROB30
TEMPO 2718/2806 6000 -RA SCT004 BKN016
BECMG 2721/2724 25012KT
TEMPO 2802/2806 25022G35KT
ATIS : +44 1446 729 319



MET'MAP, your aeronautical weather chart ! - Copyright ORBIFLY December 2007 - Disclaimer

ORBIFLY MET'MAP TEAM :

Programming & Development : Alexandra Zaïnal
Concept & original design : Baudouin d'Aumeries
Assistance for programming : Marc-Olivier Méhu
Technical & hardware support : Manuel Goepfert

Contact : metmap@orbifly.com




SOURCES & CREDITS :

   NOAA